createdAt,value
2023-05-11T00:01:31.126Z,13.72
2023-05-11T00:03:57.465Z,13.73
2023-05-11T00:06:23.847Z,13.68
2023-05-11T00:08:50.113Z,13.68
2023-05-11T00:11:16.374Z,13.67
2023-05-11T00:13:42.584Z,13.67
2023-05-11T00:16:08.877Z,13.65
2023-05-11T00:18:35.181Z,13.64
2023-05-11T00:21:01.397Z,13.59
2023-05-11T00:23:27.645Z,13.56
2023-05-11T00:25:53.930Z,13.52
2023-05-11T00:28:20.188Z,13.52
2023-05-11T00:30:46.443Z,13.52
2023-05-11T00:33:12.687Z,13.51
2023-05-11T00:35:38.933Z,13.49
2023-05-11T00:38:05.200Z,13.42
2023-05-11T00:40:31.417Z,13.41
2023-05-11T00:42:57.639Z,13.39
2023-05-11T00:45:23.889Z,13.40
2023-05-11T00:47:50.158Z,13.37
2023-05-11T00:50:16.673Z,13.34
2023-05-11T00:52:43.259Z,13.35
2023-05-11T00:55:09.497Z,13.29
2023-05-11T00:57:35.721Z,13.30
2023-05-11T01:00:01.987Z,13.26
2023-05-11T01:02:28.253Z,13.28
2023-05-11T01:04:54.641Z,13.27
2023-05-11T01:07:21.000Z,13.26
2023-05-11T01:09:47.231Z,13.23
2023-05-11T01:12:13.449Z,13.22
2023-05-11T01:14:39.679Z,13.18
2023-05-11T01:17:05.929Z,13.15
2023-05-11T01:19:32.623Z,13.11
2023-05-11T01:21:58.962Z,13.09
2023-05-11T01:24:25.222Z,13.04
2023-05-11T01:26:51.485Z,13.02
2023-05-11T01:29:17.739Z,13.02
2023-05-11T01:31:43.950Z,12.98
2023-05-11T01:34:10.408Z,12.93
2023-05-11T01:36:36.656Z,12.91
2023-05-11T01:39:02.924Z,12.88
2023-05-11T01:41:29.184Z,12.83
2023-05-11T01:43:55.460Z,12.76
2023-05-11T01:46:21.804Z,12.75
2023-05-11T01:48:48.114Z,12.69
2023-05-11T01:51:14.413Z,12.67
2023-05-11T01:53:40.720Z,12.60
2023-05-11T01:56:07.109Z,12.57
2023-05-11T01:58:33.400Z,12.57
2023-05-11T02:00:59.647Z,12.56
2023-05-11T02:03:26.085Z,12.52
2023-05-11T02:05:52.403Z,12.49
2023-05-11T02:08:18.597Z,12.52
2023-05-11T02:10:44.863Z,12.50
2023-05-11T02:13:11.137Z,12.44
2023-05-11T02:15:37.444Z,12.40
2023-05-11T02:18:03.697Z,12.39
2023-05-11T02:20:30.017Z,12.40
2023-05-11T02:22:56.238Z,12.41
2023-05-11T02:25:22.551Z,12.38
2023-05-11T02:27:48.824Z,12.35
2023-05-11T02:30:15.131Z,12.32
2023-05-11T02:32:41.417Z,12.31
2023-05-11T02:35:07.740Z,12.28
2023-05-11T02:37:33.987Z,12.25
2023-05-11T02:40:00.271Z,12.24
2023-05-11T02:42:26.583Z,12.24
2023-05-11T02:44:52.821Z,12.26
2023-05-11T02:47:19.121Z,12.23
2023-05-11T02:49:45.375Z,12.20
2023-05-11T02:52:11.594Z,12.17
2023-05-11T02:54:37.896Z,12.19
2023-05-11T02:57:04.136Z,12.21
2023-05-11T02:59:30.344Z,12.18
2023-05-11T03:01:56.796Z,12.16
2023-05-11T03:04:23.144Z,12.16
2023-05-11T03:06:49.423Z,12.14
2023-05-11T03:09:15.669Z,12.10
2023-05-11T03:11:41.947Z,12.05
2023-05-11T03:14:08.196Z,12.00
2023-05-11T03:16:34.486Z,11.98
2023-05-11T03:19:00.796Z,11.92
2023-05-11T03:21:27.102Z,11.90
2023-05-11T03:23:53.326Z,11.89
2023-05-11T03:26:19.582Z,11.89
2023-05-11T03:28:45.838Z,11.89
2023-05-11T03:31:12.082Z,11.82
2023-05-11T03:33:38.347Z,11.74
2023-05-11T03:36:04.659Z,11.73
2023-05-11T03:38:30.943Z,11.72
2023-05-11T03:40:57.192Z,11.70
2023-05-11T03:43:23.422Z,11.70
2023-05-11T03:45:49.658Z,11.73
2023-05-11T03:48:15.948Z,11.72
2023-05-11T03:50:42.193Z,11.68
2023-05-11T03:53:08.410Z,11.69
2023-05-11T03:55:34.651Z,11.69
2023-05-11T03:58:02.409Z,11.69
2023-05-11T04:00:30.622Z,11.66
2023-05-11T04:02:56.955Z,11.65
2023-05-11T04:05:23.239Z,11.64
2023-05-11T04:07:49.540Z,11.63
2023-05-11T04:10:15.879Z,11.57
2023-05-11T04:12:42.363Z,11.57
2023-05-11T04:15:08.667Z,11.56
2023-05-11T04:17:34.965Z,11.58
2023-05-11T04:20:01.284Z,11.57
2023-05-11T04:22:27.516Z,11.58
2023-05-11T04:24:53.759Z,11.59
2023-05-11T04:27:20.006Z,11.59
2023-05-11T04:29:46.242Z,11.59
2023-05-11T04:32:12.532Z,11.64
2023-05-11T04:34:38.748Z,11.69
2023-05-11T04:37:05.045Z,11.73
2023-05-11T04:39:31.242Z,11.79
2023-05-11T04:41:57.503Z,11.88
2023-05-11T04:44:23.778Z,11.97
2023-05-11T04:46:50.048Z,12.02
2023-05-11T04:49:16.313Z,12.08
2023-05-11T04:51:42.605Z,12.14
2023-05-11T04:54:08.941Z,12.20
2023-05-11T04:56:35.187Z,12.24
2023-05-11T04:59:02.469Z,12.28
2023-05-11T05:01:30.374Z,12.27
2023-05-11T05:03:56.701Z,12.31
2023-05-11T05:06:22.908Z,12.37
2023-05-11T05:08:49.209Z,12.40
2023-05-11T05:11:15.472Z,12.39
2023-05-11T05:13:41.728Z,12.44
2023-05-11T05:16:08.009Z,12.51
2023-05-11T05:18:34.255Z,12.52
2023-05-11T05:21:00.696Z,12.55
2023-05-11T05:23:26.945Z,12.46
2023-05-11T05:25:53.161Z,12.47
2023-05-11T05:28:19.456Z,12.53
2023-05-11T05:30:45.727Z,12.57
2023-05-11T05:33:12.034Z,12.65
2023-05-11T05:35:38.289Z,12.71
2023-05-11T05:38:04.585Z,12.80
2023-05-11T05:40:30.875Z,12.90
2023-05-11T05:42:57.111Z,12.97
2023-05-11T05:45:23.360Z,13.05
2023-05-11T05:47:49.682Z,13.16
2023-05-11T05:50:16.109Z,13.20
2023-05-11T05:52:42.553Z,13.27
2023-05-11T05:55:08.795Z,13.34
2023-05-11T05:57:35.051Z,13.37
2023-05-11T06:00:01.290Z,13.47
2023-05-11T06:02:27.682Z,13.57
2023-05-11T06:04:54.025Z,13.63
2023-05-11T06:07:20.300Z,13.73
2023-05-11T06:09:46.562Z,13.80
2023-05-11T06:12:12.830Z,13.84
2023-05-11T06:14:39.144Z,13.89
2023-05-11T06:17:05.364Z,13.95
2023-05-11T06:19:31.572Z,14.00
2023-05-11T06:21:57.830Z,14.13
2023-05-11T06:24:24.152Z,14.23
2023-05-11T06:26:50.479Z,14.33
2023-05-11T06:29:16.691Z,14.42
2023-05-11T06:31:43.050Z,14.51
2023-05-11T06:34:09.370Z,14.57
2023-05-11T06:36:35.678Z,14.67
2023-05-11T06:39:01.980Z,14.83
2023-05-11T06:41:28.243Z,14.79
2023-05-11T06:43:54.484Z,14.84
2023-05-11T06:46:20.837Z,14.95
2023-05-11T06:48:47.108Z,15.03
2023-05-11T06:51:13.392Z,15.19
2023-05-11T06:53:39.701Z,15.18
2023-05-11T06:56:05.922Z,15.28
2023-05-11T06:58:32.226Z,15.38
2023-05-11T07:00:58.566Z,15.52
2023-05-11T07:03:24.837Z,15.59
2023-05-11T07:05:51.062Z,15.61
2023-05-11T07:08:17.370Z,15.73
2023-05-11T07:10:43.615Z,15.78
2023-05-11T07:13:09.878Z,15.78
2023-05-11T07:15:36.150Z,15.81
2023-05-11T07:18:02.437Z,15.98
2023-05-11T07:20:28.772Z,16.06
2023-05-11T07:22:55.020Z,16.22
2023-05-11T07:25:21.317Z,16.39
2023-05-11T07:27:47.537Z,16.45
2023-05-11T07:30:13.775Z,16.48
2023-05-11T07:32:40.051Z,16.47
2023-05-11T07:35:06.415Z,16.56
2023-05-11T07:37:32.633Z,16.67
2023-05-11T07:39:58.923Z,16.80
2023-05-11T07:42:25.204Z,16.91
2023-05-11T07:44:51.479Z,17.03
2023-05-11T07:47:17.809Z,17.13
2023-05-11T07:49:44.363Z,17.16
2023-05-11T07:52:10.625Z,17.18
2023-05-11T07:54:36.962Z,17.28
2023-05-11T07:57:03.339Z,17.39
2023-05-11T07:59:29.864Z,17.49
2023-05-11T08:01:56.148Z,17.57
2023-05-11T08:04:22.430Z,17.55
2023-05-11T08:06:48.712Z,17.63
2023-05-11T08:09:15.061Z,17.77
2023-05-11T08:11:41.332Z,17.90
2023-05-11T08:14:07.699Z,17.98
2023-05-11T08:16:33.977Z,18.05
2023-05-11T08:19:00.400Z,17.93
2023-05-11T08:21:26.688Z,18.04
2023-05-11T08:23:52.938Z,18.02
2023-05-11T08:26:19.161Z,18.06
2023-05-11T08:28:45.431Z,18.15
2023-05-11T08:31:11.761Z,18.33
2023-05-11T08:33:38.824Z,18.49
2023-05-11T08:36:05.493Z,18.69
2023-05-11T08:38:31.779Z,18.75
2023-05-11T08:40:58.055Z,18.81
2023-05-11T08:43:24.257Z,18.77
2023-05-11T08:45:50.562Z,18.89
2023-05-11T08:48:16.837Z,18.99
2023-05-11T08:50:43.128Z,18.99
2023-05-11T08:53:09.353Z,19.16
2023-05-11T08:55:35.689Z,19.38
2023-05-11T08:58:01.922Z,19.34
2023-05-11T09:00:28.148Z,19.57
2023-05-11T09:02:54.588Z,19.92
2023-05-11T09:05:21.056Z,20.17
2023-05-11T09:07:47.571Z,20.12
2023-05-11T09:10:14.105Z,19.96
2023-05-11T09:12:40.472Z,19.94
2023-05-11T09:15:06.723Z,19.88
2023-05-11T09:17:33.047Z,20.41
2023-05-11T09:19:59.303Z,20.57
2023-05-11T09:22:26.483Z,20.77
2023-05-11T09:24:54.027Z,20.62
2023-05-11T09:27:21.624Z,20.64
2023-05-11T09:29:51.991Z,20.60
2023-05-11T09:32:18.598Z,20.62
2023-05-11T09:34:44.926Z,20.61
2023-05-11T09:37:11.184Z,20.50
2023-05-11T09:39:44.773Z,20.53
2023-05-11T09:42:23.693Z,20.44
2023-05-11T09:44:49.916Z,20.46
2023-05-11T09:47:16.648Z,20.84
2023-05-11T09:49:42.906Z,20.82
2023-05-11T09:52:09.136Z,20.91
2023-05-11T09:54:35.365Z,20.49
2023-05-11T09:57:01.927Z,20.20
2023-05-11T09:59:28.207Z,19.85
2023-05-11T10:01:54.556Z,19.57
2023-05-11T10:04:23.419Z,19.38
2023-05-11T10:06:50.151Z,19.27
2023-05-11T10:09:16.394Z,19.34
2023-05-11T10:11:42.770Z,19.35
2023-05-11T10:14:09.064Z,19.55
2023-05-11T10:16:35.458Z,19.91
2023-05-11T10:19:01.925Z,19.81
2023-05-11T10:21:28.235Z,20.14
2023-05-11T10:23:54.490Z,20.44
2023-05-11T10:26:20.729Z,20.56
2023-05-11T10:28:47.032Z,20.60
2023-05-11T10:31:13.287Z,20.52
2023-05-11T10:33:39.530Z,20.43
2023-05-11T10:36:05.855Z,20.28
2023-05-11T10:38:32.204Z,20.43
2023-05-11T10:40:58.500Z,20.95
2023-05-11T10:43:24.810Z,21.60
2023-05-11T10:45:51.049Z,22.03
2023-05-11T10:48:17.390Z,22.05
2023-05-11T10:50:43.684Z,22.27
2023-05-11T10:53:09.912Z,22.38
2023-05-11T10:55:36.236Z,22.13
2023-05-11T10:58:02.576Z,22.04
2023-05-11T11:00:28.866Z,21.54
2023-05-11T11:02:55.150Z,21.73
2023-05-11T11:05:21.770Z,21.91
2023-05-11T11:07:48.134Z,22.68
2023-05-11T11:10:14.416Z,22.89
2023-05-11T11:12:40.674Z,22.79
2023-05-11T11:15:07.145Z,22.52
2023-05-11T11:17:33.496Z,22.73
2023-05-11T11:19:59.766Z,22.94
2023-05-11T11:22:26.059Z,23.21
2023-05-11T11:24:52.310Z,23.43
2023-05-11T11:27:18.587Z,23.09
2023-05-11T11:29:44.812Z,23.18
2023-05-11T11:32:11.116Z,23.01
2023-05-11T11:34:37.481Z,22.11
2023-05-11T11:37:03.734Z,21.82
2023-05-11T11:39:30.047Z,21.77
2023-05-11T11:41:56.240Z,21.81
2023-05-11T11:44:22.514Z,22.00
2023-05-11T11:46:48.776Z,22.23
2023-05-11T11:49:15.040Z,22.49
2023-05-11T11:51:41.298Z,22.49
2023-05-11T11:54:07.592Z,22.50
2023-05-11T11:56:33.849Z,22.41
2023-05-11T11:59:00.147Z,22.43
2023-05-11T12:01:26.494Z,22.34
2023-05-11T12:03:52.832Z,22.32
2023-05-11T12:06:19.225Z,21.77
2023-05-11T12:08:45.522Z,21.50
2023-05-11T12:11:11.817Z,21.09
2023-05-11T12:13:38.106Z,21.12
2023-05-11T12:16:04.401Z,21.06
2023-05-11T12:18:30.748Z,21.61
2023-05-11T12:20:57.078Z,22.10
2023-05-11T12:23:23.325Z,22.33
2023-05-11T12:25:49.573Z,22.46
2023-05-11T12:28:15.845Z,22.68
2023-05-11T12:30:42.152Z,22.78
2023-05-11T12:33:08.453Z,22.62
2023-05-11T12:35:34.777Z,22.70
2023-05-11T12:38:01.027Z,22.83
2023-05-11T12:40:27.328Z,22.91
2023-05-11T12:42:53.605Z,22.57
2023-05-11T12:45:20.081Z,22.26
2023-05-11T12:47:46.591Z,22.23
2023-05-11T12:50:12.949Z,22.19
2023-05-11T12:52:39.186Z,22.43
2023-05-11T12:55:05.444Z,23.09
2023-05-11T12:57:31.902Z,23.20
2023-05-11T12:59:58.126Z,23.33
2023-05-11T13:02:24.465Z,23.57
2023-05-11T13:04:50.679Z,23.68
2023-05-11T13:07:16.950Z,23.70
2023-05-11T13:09:43.196Z,23.57
2023-05-11T13:12:09.444Z,23.53
2023-05-11T13:14:35.701Z,23.32
2023-05-11T13:17:01.956Z,22.90
2023-05-11T13:19:28.291Z,23.19
2023-05-11T13:21:54.566Z,23.74
2023-05-11T13:24:20.788Z,23.87
2023-05-11T13:26:47.036Z,24.03
2023-05-11T13:29:13.331Z,24.18
2023-05-11T13:31:39.645Z,24.03
2023-05-11T13:34:05.865Z,24.24
2023-05-11T13:36:33.910Z,24.23
2023-05-11T13:39:00.744Z,24.20
2023-05-11T13:41:26.999Z,24.24
2023-05-11T13:43:53.192Z,24.20
2023-05-11T13:46:19.439Z,24.29
2023-05-11T13:48:45.736Z,24.75
2023-05-11T13:51:12.015Z,24.96
2023-05-11T13:53:38.266Z,23.99
2023-05-11T13:56:04.554Z,24.46
2023-05-11T13:58:30.799Z,24.61
2023-05-11T14:03:30.569Z,24.64
2023-05-11T14:05:56.915Z,24.49
2023-05-11T14:08:24.446Z,24.12
2023-05-11T14:10:50.728Z,24.20
2023-05-11T14:13:17.008Z,23.88
2023-05-11T14:15:43.264Z,23.87
2023-05-11T14:18:09.748Z,23.83
2023-05-11T14:20:36.106Z,24.07
2023-05-11T14:23:02.298Z,23.81
2023-05-11T14:25:28.514Z,23.82
2023-05-11T14:27:54.791Z,23.69
2023-05-11T14:30:21.371Z,23.91
2023-05-11T14:32:47.694Z,23.89
2023-05-11T14:35:14.029Z,23.94
2023-05-11T14:37:40.283Z,23.60
2023-05-11T14:40:06.532Z,23.87
2023-05-11T14:42:32.749Z,23.90
2023-05-11T14:44:59.042Z,23.95
2023-05-11T14:47:25.286Z,24.08
2023-05-11T14:49:51.523Z,23.93
2023-05-11T14:52:17.718Z,23.90
2023-05-11T14:54:44.002Z,24.02
2023-05-11T14:57:10.336Z,23.96
2023-05-11T14:59:44.515Z,23.86
2023-05-11T15:02:17.814Z,23.93
2023-05-11T15:04:44.102Z,24.02
2023-05-11T15:07:10.298Z,24.10
2023-05-11T15:09:36.515Z,23.84
2023-05-11T15:12:02.748Z,23.72
2023-05-11T15:14:29.036Z,23.73
2023-05-11T15:16:55.225Z,24.09
2023-05-11T15:19:21.458Z,24.28
2023-05-11T15:21:47.744Z,24.30
2023-05-11T15:24:13.975Z,24.26
2023-05-11T15:26:40.203Z,24.12
2023-05-11T15:29:06.475Z,24.00
2023-05-11T15:31:32.721Z,23.78
2023-05-11T15:33:59.049Z,23.93
2023-05-11T15:36:26.414Z,23.83
2023-05-11T15:38:54.385Z,24.10
2023-05-11T15:41:20.687Z,24.16
2023-05-11T15:43:47.110Z,24.20
2023-05-11T15:46:13.478Z,24.11
2023-05-11T15:48:39.802Z,23.79
2023-05-11T15:51:05.996Z,23.86
2023-05-11T15:53:32.540Z,24.54
2023-05-11T15:55:58.803Z,25.04
2023-05-11T15:58:25.117Z,25.36
2023-05-11T16:00:51.505Z,25.56
2023-05-11T16:03:17.978Z,25.70
2023-05-11T16:05:44.350Z,25.84
2023-05-11T16:08:10.598Z,25.37
2023-05-11T16:10:36.866Z,25.08
2023-05-11T16:13:03.084Z,24.69
2023-05-11T16:15:29.309Z,24.73
2023-05-11T16:17:55.602Z,24.53
2023-05-11T16:20:21.878Z,24.31
2023-05-11T16:22:48.123Z,24.08
2023-05-11T16:25:14.396Z,23.87
2023-05-11T16:27:40.691Z,23.65
2023-05-11T16:30:18.029Z,23.48
2023-05-11T16:32:49.199Z,23.33
2023-05-11T16:35:15.497Z,23.19
2023-05-11T16:37:41.717Z,22.82
2023-05-11T16:40:07.953Z,22.72
2023-05-11T16:42:34.227Z,22.60
2023-05-11T16:45:00.523Z,22.60
2023-05-11T16:47:26.859Z,22.73
2023-05-11T16:49:53.171Z,22.75
2023-05-11T16:52:19.421Z,22.40
2023-05-11T16:54:45.670Z,22.17
2023-05-11T16:57:11.884Z,22.01
2023-05-11T16:59:38.200Z,21.70
2023-05-11T17:02:04.501Z,21.50
2023-05-11T17:04:30.828Z,21.28
2023-05-11T17:06:57.077Z,21.28
2023-05-11T17:09:23.300Z,21.19
2023-05-11T17:11:49.619Z,21.08
2023-05-11T17:14:15.893Z,20.91
2023-05-11T17:16:42.287Z,20.85
2023-05-11T17:19:08.686Z,20.88
2023-05-11T17:21:35.008Z,20.82
2023-05-11T17:24:01.241Z,20.72
2023-05-11T17:26:35.437Z,20.70
2023-05-11T17:29:10.007Z,20.73
2023-05-11T17:31:36.443Z,20.71
2023-05-11T17:34:03.030Z,20.59
2023-05-11T17:36:29.398Z,20.55
2023-05-11T17:38:55.626Z,20.53
2023-05-11T17:41:21.858Z,20.64
2023-05-11T17:43:48.152Z,20.71
2023-05-11T17:46:14.454Z,20.97
2023-05-11T17:48:40.830Z,21.37
2023-05-11T17:51:07.116Z,21.75
2023-05-11T17:53:33.373Z,22.18
2023-05-11T17:55:59.649Z,21.93
2023-05-11T17:58:25.898Z,21.45
2023-05-11T18:00:52.169Z,21.50
2023-05-11T18:03:18.481Z,20.52
2023-05-11T18:05:48.430Z,19.98
2023-05-11T18:08:15.560Z,19.67
2023-05-11T18:10:41.842Z,19.44
2023-05-11T18:13:08.120Z,19.24
2023-05-11T18:15:34.458Z,19.12
2023-05-11T18:18:00.810Z,19.02
2023-05-11T18:20:27.149Z,18.97
2023-05-11T18:22:53.429Z,18.85
2023-05-11T18:25:19.729Z,18.77
2023-05-11T18:27:45.921Z,18.72
2023-05-11T18:30:12.174Z,18.68
2023-05-11T18:32:38.465Z,18.63
2023-05-11T18:35:04.760Z,18.59
2023-05-11T18:37:30.968Z,18.57
2023-05-11T18:39:57.260Z,18.49
2023-05-11T18:42:23.497Z,18.41
2023-05-11T18:44:49.814Z,18.32
2023-05-11T18:47:16.104Z,18.20
2023-05-11T18:49:42.354Z,18.17
2023-05-11T18:52:08.627Z,18.20
2023-05-11T18:54:34.895Z,18.19
2023-05-11T18:57:01.142Z,18.18
2023-05-11T18:59:27.356Z,18.14
2023-05-11T19:01:53.728Z,18.10
2023-05-11T19:04:20.197Z,18.08
2023-05-11T19:06:46.506Z,18.03
2023-05-11T19:09:12.763Z,18.03
2023-05-11T19:11:38.966Z,17.99
2023-05-11T19:14:05.292Z,17.98
2023-05-11T19:16:31.621Z,17.99
2023-05-11T19:18:58.021Z,17.97
2023-05-11T19:21:24.394Z,17.98
2023-05-11T19:23:50.701Z,17.93
2023-05-11T19:26:16.965Z,17.86
2023-05-11T19:28:43.224Z,17.82
2023-05-11T19:31:09.483Z,17.82
2023-05-11T19:33:35.669Z,17.82
2023-05-11T19:36:01.898Z,17.76
2023-05-11T19:38:28.208Z,17.72
2023-05-11T19:40:54.522Z,17.60
2023-05-11T19:43:21.289Z,17.52
2023-05-11T19:45:47.569Z,17.46
2023-05-11T19:48:14.155Z,17.39
2023-05-11T19:50:40.549Z,17.38
2023-05-11T19:53:06.802Z,17.42
2023-05-11T19:55:33.021Z,17.40
2023-05-11T19:57:59.310Z,17.39
2023-05-11T20:00:25.522Z,17.35
2023-05-11T20:02:51.932Z,17.28
2023-05-11T20:05:18.273Z,17.31
2023-05-11T20:07:44.536Z,17.30
2023-05-11T20:10:10.842Z,17.24
2023-05-11T20:12:37.167Z,17.14
2023-05-11T20:15:03.455Z,17.10
2023-05-11T20:17:29.697Z,17.06
2023-05-11T20:19:55.984Z,17.07
2023-05-11T20:22:22.189Z,17.05
2023-05-11T20:24:48.455Z,17.01
2023-05-11T20:27:14.794Z,16.91
2023-05-11T20:29:41.187Z,16.88
2023-05-11T20:32:07.511Z,16.83
2023-05-11T20:34:33.776Z,16.76
2023-05-11T20:37:00.114Z,16.70
2023-05-11T20:39:26.339Z,16.61
2023-05-11T20:41:52.577Z,16.60
2023-05-11T20:44:18.860Z,16.61
2023-05-11T20:46:45.145Z,16.61
2023-05-11T20:49:11.431Z,16.58
2023-05-11T20:51:37.737Z,16.56
2023-05-11T20:54:03.994Z,16.55
2023-05-11T20:56:30.299Z,16.53
2023-05-11T20:58:56.523Z,16.52
2023-05-11T21:01:22.909Z,16.52
2023-05-11T21:03:49.248Z,16.50
2023-05-11T21:06:15.501Z,16.45
2023-05-11T21:08:41.753Z,16.42
2023-05-11T21:11:08.111Z,16.39
2023-05-11T21:13:34.368Z,16.36
2023-05-11T21:16:00.627Z,16.37
2023-05-11T21:18:26.890Z,16.43
2023-05-11T21:20:53.266Z,16.39
2023-05-11T21:23:19.492Z,16.35
2023-05-11T21:25:45.700Z,16.37
2023-05-11T21:28:11.884Z,16.37
2023-05-11T21:30:38.170Z,16.36
2023-05-11T21:33:04.465Z,16.32
2023-05-11T21:35:30.779Z,16.33
2023-05-11T21:37:57.072Z,16.34
2023-05-11T21:40:23.424Z,16.37
2023-05-11T21:42:49.666Z,16.36
2023-05-11T21:45:15.896Z,16.39
2023-05-11T21:47:42.130Z,16.37
2023-05-11T21:50:08.569Z,16.35
2023-05-11T21:52:35.032Z,16.30
2023-05-11T21:55:01.353Z,16.30
2023-05-11T21:57:27.580Z,16.31
2023-05-11T21:59:53.868Z,16.27
2023-05-11T22:02:20.193Z,16.26
2023-05-11T22:04:46.442Z,16.21
2023-05-11T22:07:12.651Z,16.20
2023-05-11T22:09:38.876Z,16.21
2023-05-11T22:12:05.130Z,16.20
2023-05-11T22:14:31.357Z,16.18
2023-05-11T22:16:57.590Z,16.16
2023-05-11T22:19:23.827Z,16.16
2023-05-11T22:21:50.118Z,16.13
2023-05-11T22:24:16.434Z,16.12
2023-05-11T22:26:42.693Z,16.11
2023-05-11T22:29:08.923Z,16.15
2023-05-11T22:31:35.186Z,16.13
2023-05-11T22:34:01.445Z,16.11
2023-05-11T22:36:27.715Z,16.13
2023-05-11T22:38:54.004Z,16.14
2023-05-11T22:41:20.218Z,16.14
2023-05-11T22:43:46.463Z,16.15
2023-05-11T22:46:12.784Z,16.16
2023-05-11T22:48:39.061Z,16.19
2023-05-11T22:51:05.315Z,16.21
2023-05-11T22:53:31.602Z,16.24
2023-05-11T22:55:57.880Z,16.27
2023-05-11T22:58:24.165Z,16.31
2023-05-11T23:00:50.444Z,16.34
2023-05-11T23:03:16.800Z,16.35
2023-05-11T23:05:43.115Z,16.37
2023-05-11T23:08:09.379Z,16.34
2023-05-11T23:10:35.654Z,16.31
2023-05-11T23:13:01.908Z,16.27
2023-05-11T23:15:28.180Z,16.25
2023-05-11T23:17:54.479Z,16.23
2023-05-11T23:20:21.016Z,16.19
2023-05-11T23:22:47.443Z,16.14
2023-05-11T23:25:13.795Z,16.10
2023-05-11T23:27:40.071Z,16.06
2023-05-11T23:30:06.292Z,16.08
2023-05-11T23:32:32.596Z,16.13
2023-05-11T23:34:58.910Z,16.19
2023-05-11T23:37:25.148Z,16.20
2023-05-11T23:39:51.420Z,16.20
2023-05-11T23:42:17.755Z,16.18
2023-05-11T23:44:44.060Z,16.18
2023-05-11T23:47:10.533Z,16.23
2023-05-11T23:49:36.854Z,16.23
2023-05-11T23:52:03.151Z,16.27
2023-05-11T23:54:29.352Z,16.28
2023-05-11T23:56:55.624Z,16.31
2023-05-11T23:59:21.855Z,16.33
